sensor_id;sensor_type;location;lat;lon;timestamp;pressure;altitude;pressure_sealevel;temperature;humidity
46942;BME280;32676;52.630;4.896;2023-12-20T00:00:18;101630.16;;;7.58;80.79
46942;BME280;32676;52.630;4.896;2023-12-20T00:02:44;101624.06;;;7.57;80.85
46942;BME280;32676;52.630;4.896;2023-12-20T00:05:12;101624.94;;;7.56;80.58
46942;BME280;32676;52.630;4.896;2023-12-20T00:07:38;101606.69;;;7.52;80.35
46942;BME280;32676;52.630;4.896;2023-12-20T00:10:05;101601.44;;;7.53;79.84
46942;BME280;32676;52.630;4.896;2023-12-20T00:12:32;101604.06;;;7.52;79.60
46942;BME280;32676;52.630;4.896;2023-12-20T00:15:00;101598.84;;;7.48;79.46
46942;BME280;32676;52.630;4.896;2023-12-20T00:17:26;101596.22;;;7.50;79.36
46942;BME280;32676;52.630;4.896;2023-12-20T00:19:53;101586.63;;;7.50;79.32
46942;BME280;32676;52.630;4.896;2023-12-20T00:22:19;101597.94;;;7.51;79.45
46942;BME280;32676;52.630;4.896;2023-12-20T00:24:46;101592.72;;;7.51;79.66
46942;BME280;32676;52.630;4.896;2023-12-20T00:27:12;101592.72;;;7.51;79.67
46942;BME280;32676;52.630;4.896;2023-12-20T00:29:38;101601.47;;;7.50;79.77
46942;BME280;32676;52.630;4.896;2023-12-20T00:32:06;101606.69;;;7.53;79.81
46942;BME280;32676;52.630;4.896;2023-12-20T00:34:33;101611.00;;;7.56;80.23
46942;BME280;32676;52.630;4.896;2023-12-20T00:36:59;101617.09;;;7.56;80.34
46942;BME280;32676;52.630;4.896;2023-12-20T00:39:26;101616.22;;;7.57;80.43
46942;BME280;32676;52.630;4.896;2023-12-20T00:41:52;101632.78;;;7.59;80.68
46942;BME280;32676;52.630;4.896;2023-12-20T00:44:18;101646.69;;;7.61;80.98
46942;BME280;32676;52.630;4.896;2023-12-20T00:46:44;101658.00;;;7.65;81.08
46942;BME280;32676;52.630;4.896;2023-12-20T00:49:12;101653.66;;;7.65;80.90
46942;BME280;32676;52.630;4.896;2023-12-20T00:51:38;101644.94;;;7.63;80.81
46942;BME280;32676;52.630;4.896;2023-12-20T00:54:04;101658.00;;;7.65;80.80
46942;BME280;32676;52.630;4.896;2023-12-20T00:56:31;101662.34;;;7.67;80.66
46942;BME280;32676;52.630;4.896;2023-12-20T00:58:57;101657.13;;;7.67;80.79
46942;BME280;32676;52.630;4.896;2023-12-20T01:01:24;101648.47;;;7.62;80.84
46942;BME280;32676;52.630;4.896;2023-12-20T01:03:50;101664.97;;;7.67;80.87
46942;BME280;32676;52.630;4.896;2023-12-20T01:06:19;101653.66;;;7.65;80.85
46942;BME280;32676;52.630;4.896;2023-12-20T01:08:46;101662.38;;;7.66;80.89
46942;BME280;32676;52.630;4.896;2023-12-20T01:11:12;101656.31;;;7.62;80.72
46942;BME280;32676;52.630;4.896;2023-12-20T01:13:39;101664.09;;;7.65;80.77
46942;BME280;32676;52.630;4.896;2023-12-20T01:16:05;101660.63;;;7.65;80.75
46942;BME280;32676;52.630;4.896;2023-12-20T01:18:32;101670.19;;;7.69;80.79
46942;BME280;32676;52.630;4.896;2023-12-20T01:21:01;101671.06;;;7.69;80.62
46942;BME280;32676;52.630;4.896;2023-12-20T01:23:30;101678.88;;;7.73;80.59
46942;BME280;32676;52.630;4.896;2023-12-20T01:25:56;101690.19;;;7.75;80.58
46942;BME280;32676;52.630;4.896;2023-12-20T01:28:24;101705.88;;;7.78;80.65
46942;BME280;32676;52.630;4.896;2023-12-20T01:30:51;101702.41;;;7.76;80.47
46942;BME280;32676;52.630;4.896;2023-12-20T01:33:17;101720.69;;;7.83;80.43
46942;BME280;32676;52.630;4.896;2023-12-20T01:35:44;101720.69;;;7.82;80.67
46942;BME280;32676;52.630;4.896;2023-12-20T01:38:10;101719.81;;;7.83;80.53
46942;BME280;32676;52.630;4.896;2023-12-20T01:40:38;101717.19;;;7.81;80.56
46942;BME280;32676;52.630;4.896;2023-12-20T01:43:07;101705.03;;;7.74;80.36
46942;BME280;32676;52.630;4.896;2023-12-20T01:45:34;101714.59;;;7.80;80.42
46942;BME280;32676;52.630;4.896;2023-12-20T01:48:01;101726.78;;;7.84;80.41
46942;BME280;32676;52.630;4.896;2023-12-20T01:50:28;101718.09;;;7.79;80.08
46942;BME280;32676;52.630;4.896;2023-12-20T01:52:57;101718.09;;;7.79;80.06
46942;BME280;32676;52.630;4.896;2023-12-20T01:55:25;101719.81;;;7.83;79.94
46942;BME280;32676;52.630;4.896;2023-12-20T01:57:55;101720.69;;;7.82;79.73
46942;BME280;32676;52.630;4.896;2023-12-20T02:00:23;101726.78;;;7.84;79.90
46942;BME280;32676;52.630;4.896;2023-12-20T02:02:53;101725.06;;;7.83;79.68
46942;BME280;32676;52.630;4.896;2023-12-20T02:05:20;101731.13;;;7.85;79.60
46942;BME280;32676;52.630;4.896;2023-12-20T02:07:46;101733.75;;;7.85;79.80
46942;BME280;32676;52.630;4.896;2023-12-20T02:10:13;101736.38;;;7.86;79.47
46942;BME280;32676;52.630;4.896;2023-12-20T02:12:40;101732.00;;;7.87;79.47
46942;BME280;32676;52.630;4.896;2023-12-20T02:15:08;101742.47;;;7.87;79.42
46942;BME280;32676;52.630;4.896;2023-12-20T02:17:36;101742.47;;;7.87;79.51
46942;BME280;32676;52.630;4.896;2023-12-20T02:20:05;101744.22;;;7.88;79.33
46942;BME280;32676;52.630;4.896;2023-12-20T02:22:33;101738.09;;;7.87;79.36
46942;BME280;32676;52.630;4.896;2023-12-20T02:24:59;101730.28;;;7.83;79.40
46942;BME280;32676;52.630;4.896;2023-12-20T02:27:27;101718.91;;;7.84;79.38
46942;BME280;32676;52.630;4.896;2023-12-20T02:29:53;101678.94;;;7.63;79.48
46942;BME280;32676;52.630;4.896;2023-12-20T02:32:20;101726.78;;;7.84;79.60
46942;BME280;32676;52.630;4.896;2023-12-20T02:34:48;101718.91;;;7.84;79.52
46942;BME280;32676;52.630;4.896;2023-12-20T02:37:14;101718.91;;;7.84;79.34
46942;BME280;32676;52.630;4.896;2023-12-20T02:39:42;101723.28;;;7.85;79.35
46942;BME280;32676;52.630;4.896;2023-12-20T02:42:09;101716.31;;;7.84;79.44
46942;BME280;32676;52.630;4.896;2023-12-20T02:44:36;101715.44;;;7.83;79.42
46942;BME280;32676;52.630;4.896;2023-12-20T02:47:03;101718.97;;;7.82;79.35
46942;BME280;32676;52.630;4.896;2023-12-20T02:49:30;101702.38;;;7.82;79.10
46942;BME280;32676;52.630;4.896;2023-12-20T02:51:56;101690.19;;;7.78;79.07
46942;BME280;32676;52.630;4.896;2023-12-20T02:54:22;101685.88;;;7.72;79.06
46942;BME280;32676;52.630;4.896;2023-12-20T02:56:50;101664.97;;;7.67;79.00
46942;BME280;32676;52.630;4.896;2023-12-20T02:59:17;101639.75;;;7.57;79.02
46942;BME280;32676;52.630;4.896;2023-12-20T03:01:44;101637.94;;;7.65;79.33
46942;BME280;32676;52.630;4.896;2023-12-20T03:04:10;101618.84;;;7.54;79.63
46942;BME280;32676;52.630;4.896;2023-12-20T03:06:37;101627.53;;;7.62;79.69
46942;BME280;32676;52.630;4.896;2023-12-20T03:09:04;101614.47;;;7.61;79.80
46942;BME280;32676;52.630;4.896;2023-12-20T03:11:30;101609.25;;;7.58;80.03
46942;BME280;32676;52.630;4.896;2023-12-20T03:13:58;101606.63;;;7.56;80.08
46942;BME280;32676;52.630;4.896;2023-12-20T03:16:25;101611.00;;;7.57;80.17
46942;BME280;32676;52.630;4.896;2023-12-20T03:18:51;101615.31;;;7.61;80.35
46942;BME280;32676;52.630;4.896;2023-12-20T03:21:18;101617.94;;;7.60;80.43
46942;BME280;32676;52.630;4.896;2023-12-20T03:23:45;101624.03;;;7.60;80.68
46942;BME280;32676;52.630;4.896;2023-12-20T03:26:11;101618.84;;;7.57;80.75
46942;BME280;32676;52.630;4.896;2023-12-20T03:28:38;101620.53;;;7.61;80.82
46942;BME280;32676;52.630;4.896;2023-12-20T03:31:06;101621.47;;;7.59;81.05
46942;BME280;32676;52.630;4.896;2023-12-20T03:33:32;101627.53;;;7.62;81.02
46942;BME280;32676;52.630;4.896;2023-12-20T03:35:58;101633.63;;;7.63;81.19
46942;BME280;32676;52.630;4.896;2023-12-20T03:38:25;101628.41;;;7.61;81.12
46942;BME280;32676;52.630;4.896;2023-12-20T03:40:51;101628.38;;;7.63;81.10
46942;BME280;32676;52.630;4.896;2023-12-20T03:43:18;101639.69;;;7.66;81.17
46942;BME280;32676;52.630;4.896;2023-12-20T03:45:44;101637.94;;;7.65;81.10
46942;BME280;32676;52.630;4.896;2023-12-20T03:48:12;101643.19;;;7.65;81.03
46942;BME280;32676;52.630;4.896;2023-12-20T03:50:38;101635.38;;;7.61;80.98
46942;BME280;32676;52.630;4.896;2023-12-20T03:53:05;101636.22;;;7.64;80.96
46942;BME280;32676;52.630;4.896;2023-12-20T03:55:31;101628.38;;;7.64;80.58
46942;BME280;32676;52.630;4.896;2023-12-20T03:57:58;101635.34;;;7.64;80.55
46942;BME280;32676;52.630;4.896;2023-12-20T04:00:24;101643.19;;;7.65;80.49
46942;BME280;32676;52.630;4.896;2023-12-20T04:02:50;101639.69;;;7.66;80.39
46942;BME280;32676;52.630;4.896;2023-12-20T04:05:19;101642.31;;;7.65;80.68
46942;BME280;32676;52.630;4.896;2023-12-20T04:07:46;101639.69;;;7.66;80.59
46942;BME280;32676;52.630;4.896;2023-12-20T04:10:12;101651.03;;;7.67;80.80
46942;BME280;32676;52.630;4.896;2023-12-20T04:12:39;101633.63;;;7.61;81.04
46942;BME280;32676;52.630;4.896;2023-12-20T04:15:06;101652.78;;;7.68;80.81
46942;BME280;32676;52.630;4.896;2023-12-20T04:17:35;101650.16;;;7.68;80.94
46942;BME280;32676;52.630;4.896;2023-12-20T04:20:02;101658.00;;;7.69;80.93
46942;BME280;32676;52.630;4.896;2023-12-20T04:22:30;101665.81;;;7.73;80.64
46942;BME280;32676;52.630;4.896;2023-12-20T04:24:56;101682.34;;;7.76;80.55
46942;BME280;32676;52.630;4.896;2023-12-20T04:27:23;101671.94;;;7.68;80.41
46942;BME280;32676;52.630;4.896;2023-12-20T04:29:49;101702.38;;;7.82;80.26
46942;BME280;32676;52.630;4.896;2023-12-20T04:32:15;101693.69;;;7.77;80.01
46942;BME280;32676;52.630;4.896;2023-12-20T04:34:42;101716.31;;;7.84;79.75
46942;BME280;32676;52.630;4.896;2023-12-20T04:37:08;101713.69;;;7.84;79.63
46942;BME280;32676;52.630;4.896;2023-12-20T04:39:36;101718.06;;;7.85;79.57
46942;BME280;32676;52.630;4.896;2023-12-20T04:42:03;101718.91;;;7.85;79.54
46942;BME280;32676;52.630;4.896;2023-12-20T04:44:29;101714.56;;;7.84;79.41
46942;BME280;32676;52.630;4.896;2023-12-20T04:46:56;101715.44;;;7.83;79.46
46942;BME280;32676;52.630;4.896;2023-12-20T04:49:22;101711.06;;;7.84;79.17
46942;BME280;32676;52.630;4.896;2023-12-20T04:52:30;101719.81;;;7.86;79.21
46942;BME280;32676;52.630;4.896;2023-12-20T04:54:58;101713.69;;;7.85;79.24
46942;BME280;32676;52.630;4.896;2023-12-20T04:57:26;101721.53;;;7.87;79.30
46942;BME280;32676;52.630;4.896;2023-12-20T04:59:52;101714.56;;;7.86;79.41
46942;BME280;32676;52.630;4.896;2023-12-20T05:02:18;101705.00;;;7.80;79.39
46942;BME280;32676;52.630;4.896;2023-12-20T05:04:45;101714.56;;;7.86;79.44
46942;BME280;32676;52.630;4.896;2023-12-20T05:07:11;101714.56;;;7.86;79.64
46942;BME280;32676;52.630;4.896;2023-12-20T05:09:38;101718.06;;;7.85;79.93
46942;BME280;32676;52.630;4.896;2023-12-20T05:12:06;101709.34;;;7.84;80.00
46942;BME280;32676;52.630;4.896;2023-12-20T05:14:33;101718.91;;;7.85;80.19
46942;BME280;32676;52.630;4.896;2023-12-20T05:16:59;101725.91;;;7.88;80.27
46942;BME280;32676;52.630;4.896;2023-12-20T05:19:26;101726.75;;;7.87;80.32
46942;BME280;32676;52.630;4.896;2023-12-20T05:21:52;101726.75;;;7.87;80.32
46942;BME280;32676;52.630;4.896;2023-12-20T05:24:19;101713.72;;;7.82;80.46
46942;BME280;32676;52.630;4.896;2023-12-20T05:26:45;101718.06;;;7.86;80.56
46942;BME280;32676;52.630;4.896;2023-12-20T05:29:13;101714.56;;;7.86;80.66
46942;BME280;32676;52.630;4.896;2023-12-20T05:31:39;101718.91;;;7.87;80.61
46942;BME280;32676;52.630;4.896;2023-12-20T05:34:06;101704.19;;;7.75;80.52
46942;BME280;32676;52.630;4.896;2023-12-20T05:36:33;101719.78;;;7.87;80.50
46942;BME280;32676;52.630;4.896;2023-12-20T05:38:59;101726.75;;;7.87;80.45
46942;BME280;32676;52.630;4.896;2023-12-20T05:41:26;101735.47;;;7.91;80.52
46942;BME280;32676;52.630;4.896;2023-12-20T05:43:52;101739.81;;;7.92;80.72
46942;BME280;32676;52.630;4.896;2023-12-20T05:46:20;101740.69;;;7.92;80.50
46942;BME280;32676;52.630;4.896;2023-12-20T05:48:47;101746.78;;;7.94;80.49
46942;BME280;32676;52.630;4.896;2023-12-20T05:51:13;101766.81;;;7.98;80.53
46942;BME280;32676;52.630;4.896;2023-12-20T05:53:40;101778.13;;;8.02;80.46
46942;BME280;32676;52.630;4.896;2023-12-20T05:56:06;101785.09;;;8.03;80.43
46942;BME280;32676;52.630;4.896;2023-12-20T05:58:33;101787.72;;;8.01;80.55
46942;BME280;32676;52.630;4.896;2023-12-20T06:00:59;101789.44;;;8.05;80.59
46942;BME280;32676;52.630;4.896;2023-12-20T06:03:27;101803.38;;;8.07;80.42
46942;BME280;32676;52.630;4.896;2023-12-20T06:05:54;101810.38;;;8.08;80.37
46942;BME280;32676;52.630;4.896;2023-12-20T06:08:20;101814.72;;;8.11;80.30
46942;BME280;32676;52.630;4.896;2023-12-20T06:10:46;101822.59;;;8.10;80.27
46942;BME280;32676;52.630;4.896;2023-12-20T06:13:13;101829.56;;;8.14;80.02
46942;BME280;32676;52.630;4.896;2023-12-20T06:15:39;101828.66;;;8.15;80.11
46942;BME280;32676;52.630;4.896;2023-12-20T06:18:06;101832.16;;;8.14;79.79
46942;BME280;32676;52.630;4.896;2023-12-20T06:20:35;101815.59;;;8.10;80.01
46942;BME280;32676;52.630;4.896;2023-12-20T06:23:02;101812.13;;;8.06;80.02
46942;BME280;32676;52.630;4.896;2023-12-20T06:25:28;101803.44;;;8.01;80.12
46942;BME280;32676;52.630;4.896;2023-12-20T06:27:55;101831.25;;;8.15;80.22
46942;BME280;32676;52.630;4.896;2023-12-20T06:30:22;101822.56;;;8.13;80.33
46942;BME280;32676;52.630;4.896;2023-12-20T06:32:50;101817.31;;;8.13;80.27
46942;BME280;32676;52.630;4.896;2023-12-20T06:35:16;101821.69;;;8.12;80.38
46942;BME280;32676;52.630;4.896;2023-12-20T06:37:44;101824.31;;;8.11;80.26
46942;BME280;32676;52.630;4.896;2023-12-20T06:40:11;101830.41;;;8.16;80.40
46942;BME280;32676;52.630;4.896;2023-12-20T06:42:38;101827.78;;;8.13;80.17
46942;BME280;32676;52.630;4.896;2023-12-20T06:45:05;101815.59;;;8.12;80.32
46942;BME280;32676;52.630;4.896;2023-12-20T06:47:31;101802.53;;;8.08;80.00
46942;BME280;32676;52.630;4.896;2023-12-20T06:49:58;101798.16;;;8.07;79.74
46942;BME280;32676;52.630;4.896;2023-12-20T06:52:24;101788.59;;;8.05;79.59
46942;BME280;32676;52.630;4.896;2023-12-20T06:54:52;101776.41;;;7.96;79.70
46942;BME280;32676;52.630;4.896;2023-12-20T06:57:18;101774.66;;;8.01;79.48
46942;BME280;32676;52.630;4.896;2023-12-20T06:59:45;101771.19;;;7.98;79.50
46942;BME280;32676;52.630;4.896;2023-12-20T07:02:11;101752.91;;;7.93;79.71
46942;BME280;32676;52.630;4.896;2023-12-20T07:04:39;101743.31;;;7.94;79.65
46942;BME280;32676;52.630;4.896;2023-12-20T07:07:07;101744.16;;;7.94;79.66
46942;BME280;32676;52.630;4.896;2023-12-20T07:09:33;101738.94;;;7.94;79.67
46942;BME280;32676;52.630;4.896;2023-12-20T07:12:02;101710.25;;;7.77;79.99
46942;BME280;32676;52.630;4.896;2023-12-20T07:14:28;101738.94;;;7.94;80.29
46942;BME280;32676;52.630;4.896;2023-12-20T07:16:55;101740.69;;;7.95;80.22
46942;BME280;32676;52.630;4.896;2023-12-20T07:19:21;101757.22;;;7.97;80.44
46942;BME280;32676;52.630;4.896;2023-12-20T07:21:48;101762.47;;;7.99;80.50
46942;BME280;32676;52.630;4.896;2023-12-20T07:24:14;101772.91;;;8.00;80.55
46942;BME280;32676;52.630;4.896;2023-12-20T07:26:40;101781.59;;;8.04;80.50
46942;BME280;32676;52.630;4.896;2023-12-20T07:29:09;101795.53;;;8.07;80.32
46942;BME280;32676;52.630;4.896;2023-12-20T07:31:35;101806.88;;;8.10;80.24
46942;BME280;32676;52.630;4.896;2023-12-20T07:34:02;101817.31;;;8.13;80.23
46942;BME280;32676;52.630;4.896;2023-12-20T07:36:28;101833.03;;;8.16;80.18
46942;BME280;32676;52.630;4.896;2023-12-20T07:38:55;101834.78;;;8.17;80.10
46942;BME280;32676;52.630;4.896;2023-12-20T07:41:21;101832.16;;;8.12;79.88
46942;BME280;32676;52.630;4.896;2023-12-20T07:43:49;101847.81;;;8.20;79.66
46942;BME280;32676;52.630;4.896;2023-12-20T07:46:16;101855.66;;;8.23;79.67
46942;BME280;32676;52.630;4.896;2023-12-20T07:48:44;101861.78;;;8.23;79.61
46942;BME280;32676;52.630;4.896;2023-12-20T07:51:11;101866.16;;;8.20;79.52
46942;BME280;32676;52.630;4.896;2023-12-20T07:53:38;101887.94;;;8.30;79.59
46942;BME280;32676;52.630;4.896;2023-12-20T07:56:14;101879.22;;;8.26;79.44
46942;BME280;32676;52.630;4.896;2023-12-20T07:58:40;101890.53;;;8.31;79.37
46942;BME280;32676;52.630;4.896;2023-12-20T08:01:07;101890.53;;;8.31;79.20
46942;BME280;32676;52.630;4.896;2023-12-20T08:03:35;101887.09;;;8.26;79.27
46942;BME280;32676;52.630;4.896;2023-12-20T08:06:02;101902.75;;;8.35;79.16
46942;BME280;32676;52.630;4.896;2023-12-20T08:08:28;101916.69;;;8.36;79.05
46942;BME280;32676;52.630;4.896;2023-12-20T08:10:54;101914.97;;;8.33;79.07
46942;BME280;32676;52.630;4.896;2023-12-20T08:13:22;101907.13;;;8.29;78.95
46942;BME280;32676;52.630;4.896;2023-12-20T08:15:51;101925.41;;;8.39;78.84
46942;BME280;32676;52.630;4.896;2023-12-20T08:18:17;101925.41;;;8.39;78.94
46942;BME280;32676;52.630;4.896;2023-12-20T08:20:45;101927.16;;;8.40;78.95
46942;BME280;32676;52.630;4.896;2023-12-20T08:23:13;101926.28;;;8.38;78.88
46942;BME280;32676;52.630;4.896;2023-12-20T08:25:39;101957.69;;;8.48;78.92
46942;BME280;32676;52.630;4.896;2023-12-20T08:28:06;101986.47;;;8.54;79.01
46942;BME280;32676;52.630;4.896;2023-12-20T08:30:32;101998.72;;;8.52;79.06
46942;BME280;32676;52.630;4.896;2023-12-20T08:32:59;102030.97;;;8.64;78.74
46942;BME280;32676;52.630;4.896;2023-12-20T08:35:26;102031.88;;;8.59;78.53
46942;BME280;32676;52.630;4.896;2023-12-20T08:37:53;102060.63;;;8.71;78.51
46942;BME280;32676;52.630;4.896;2023-12-20T08:40:20;102076.34;;;8.74;78.28
46942;BME280;32676;52.630;4.896;2023-12-20T08:42:47;102085.97;;;8.72;78.40
46942;BME280;32676;52.630;4.896;2023-12-20T08:45:13;102106.00;;;8.82;78.23
46942;BME280;32676;52.630;4.896;2023-12-20T08:47:40;102112.13;;;8.83;78.06
46942;BME280;32676;52.630;4.896;2023-12-20T08:50:10;102099.91;;;8.74;77.96
46942;BME280;32676;52.630;4.896;2023-12-20T08:52:36;102115.63;;;8.77;77.87
46942;BME280;32676;52.630;4.896;2023-12-20T08:55:05;102133.94;;;8.88;77.79
46942;BME280;32676;52.630;4.896;2023-12-20T08:57:32;102141.81;;;8.90;77.95
46942;BME280;32676;52.630;4.896;2023-12-20T08:59:59;102145.28;;;8.92;77.62
46942;BME280;32676;52.630;4.896;2023-12-20T09:02:25;102144.41;;;8.93;77.67
46942;BME280;32676;52.630;4.896;2023-12-20T09:04:52;102154.00;;;8.94;77.72
46942;BME280;32676;52.630;4.896;2023-12-20T09:07:22;102167.13;;;8.97;77.62
46942;BME280;32676;52.630;4.896;2023-12-20T09:09:49;102192.44;;;9.04;77.52
46942;BME280;32676;52.630;4.896;2023-12-20T09:12:17;102232.59;;;9.12;77.53
46942;BME280;32676;52.630;4.896;2023-12-20T09:14:44;102269.28;;;9.21;77.61
46942;BME280;32676;52.630;4.896;2023-12-20T09:17:10;102291.97;;;9.29;77.23
46942;BME280;32676;52.630;4.896;2023-12-20T09:19:37;102324.31;;;9.35;77.30
46942;BME280;32676;52.630;4.896;2023-12-20T09:22:04;102325.19;;;9.36;77.08
46942;BME280;32676;52.630;4.896;2023-12-20T09:24:30;102326.94;;;9.37;77.06
46942;BME280;32676;52.630;4.896;2023-12-20T09:26:57;102333.06;;;9.37;76.70
46942;BME280;32676;52.630;4.896;2023-12-20T09:29:25;102333.94;;;9.38;76.50
46942;BME280;32676;52.630;4.896;2023-12-20T09:31:51;102333.94;;;9.38;76.73
46942;BME280;32676;52.630;4.896;2023-12-20T09:34:18;102324.31;;;9.35;76.43
46942;BME280;32676;52.630;4.896;2023-12-20T09:36:44;102326.94;;;9.37;76.53
46942;BME280;32676;52.630;4.896;2023-12-20T09:39:11;102335.69;;;9.39;76.72
46942;BME280;32676;52.630;4.896;2023-12-20T09:41:41;102341.78;;;9.41;76.67
46942;BME280;32676;52.630;4.896;2023-12-20T09:44:14;102333.06;;;9.34;76.63
46942;BME280;32676;52.630;4.896;2023-12-20T09:46:45;102307.72;;;9.26;76.46
46942;BME280;32676;52.630;4.896;2023-12-20T09:49:17;102333.06;;;9.36;76.48
46942;BME280;32676;52.630;4.896;2023-12-20T09:51:45;102342.66;;;9.43;76.39
46942;BME280;32676;52.630;4.896;2023-12-20T09:54:13;102326.06;;;9.38;76.11
46942;BME280;32676;52.630;4.896;2023-12-20T09:56:40;102332.16;;;9.40;76.40
46942;BME280;32676;52.630;4.896;2023-12-20T09:59:06;102327.81;;;9.36;76.42
46942;BME280;32676;52.630;4.896;2023-12-20T10:01:33;102347.03;;;9.44;76.54
46942;BME280;32676;52.630;4.896;2023-12-20T10:04:03;102349.66;;;9.44;76.32
46942;BME280;32676;52.630;4.896;2023-12-20T10:06:32;102371.50;;;9.49;76.47
46942;BME280;32676;52.630;4.896;2023-12-20T10:08:58;102382.88;;;9.50;76.15
46942;BME280;32676;52.630;4.896;2023-12-20T10:11:25;102428.34;;;9.63;76.09
46942;BME280;32676;52.630;4.896;2023-12-20T10:13:51;102451.06;;;9.68;76.12
46942;BME280;32676;52.630;4.896;2023-12-20T10:16:17;102461.56;;;9.70;75.82
46942;BME280;32676;52.630;4.896;2023-12-20T10:18:45;102486.94;;;9.77;75.64
46942;BME280;32676;52.630;4.896;2023-12-20T10:21:13;102515.78;;;9.83;75.21
46942;BME280;32676;52.630;4.896;2023-12-20T10:23:40;102542.91;;;9.90;75.03
46942;BME280;32676;52.630;4.896;2023-12-20T10:26:06;102548.13;;;9.91;75.09
46942;BME280;32676;52.630;4.896;2023-12-20T10:28:33;102545.53;;;9.85;74.71
46942;BME280;32676;52.630;4.896;2023-12-20T10:31:00;102577.91;;;9.96;75.02
46942;BME280;32676;52.630;4.896;2023-12-20T10:33:27;102589.28;;;10.02;74.87
46942;BME280;32676;52.630;4.896;2023-12-20T10:35:55;102594.53;;;10.02;74.50
46942;BME280;32676;52.630;4.896;2023-12-20T10:38:23;102617.28;;;10.09;74.47
46942;BME280;32676;52.630;4.896;2023-12-20T10:40:54;102610.31;;;9.95;74.34
46942;BME280;32676;52.630;4.896;2023-12-20T10:43:23;102669.81;;;10.21;73.90
46942;BME280;32676;52.630;4.896;2023-12-20T10:45:51;102697.81;;;10.22;74.07
46942;BME280;32676;52.630;4.896;2023-12-20T10:48:18;102732.88;;;10.36;74.06
46942;BME280;32676;52.630;4.896;2023-12-20T10:50:46;102739.91;;;10.37;74.13
46942;BME280;32676;52.630;4.896;2023-12-20T10:53:13;102748.66;;;10.40;73.87
46942;BME280;32676;52.630;4.896;2023-12-20T10:55:42;102724.13;;;10.34;73.81
46942;BME280;32676;52.630;4.896;2023-12-20T10:58:10;102685.56;;;10.27;73.96
46942;BME280;32676;52.630;4.896;2023-12-20T11:00:39;102654.91;;;10.18;73.94
46942;BME280;32676;52.630;4.896;2023-12-20T11:03:09;102639.16;;;10.15;74.13
46942;BME280;32676;52.630;4.896;2023-12-20T11:05:40;102643.53;;;10.18;74.44
46942;BME280;32676;52.630;4.896;2023-12-20T11:08:13;102640.91;;;10.18;74.35
46942;BME280;32676;52.630;4.896;2023-12-20T11:10:48;102633.00;;;10.15;74.05
46942;BME280;32676;52.630;4.896;2023-12-20T11:13:20;102626.03;;;10.14;74.26
46942;BME280;32676;52.630;4.896;2023-12-20T11:15:48;102624.25;;;10.13;74.33
46942;BME280;32676;52.630;4.896;2023-12-20T11:18:15;102611.16;;;10.10;74.65
46942;BME280;32676;52.630;4.896;2023-12-20T11:20:42;102587.50;;;10.05;74.69
46942;BME280;32676;52.630;4.896;2023-12-20T11:23:09;102576.16;;;9.97;74.74
46942;BME280;32676;52.630;4.896;2023-12-20T11:25:52;102570.88;;;10.02;75.14
46942;BME280;32676;52.630;4.896;2023-12-20T11:28:21;102550.75;;;9.91;75.23
46942;BME280;32676;52.630;4.896;2023-12-20T11:30:50;102538.53;;;9.87;75.23
46942;BME280;32676;52.630;4.896;2023-12-20T11:33:21;102549.91;;;9.95;75.55
46942;BME280;32676;52.630;4.896;2023-12-20T11:35:48;102535.91;;;9.93;75.92
46942;BME280;32676;52.630;4.896;2023-12-20T11:38:15;102526.25;;;9.92;75.88
46942;BME280;32676;52.630;4.896;2023-12-20T11:40:41;102528.03;;;9.93;75.81
46942;BME280;32676;52.630;4.896;2023-12-20T11:43:09;102533.28;;;9.93;75.66
46942;BME280;32676;52.630;4.896;2023-12-20T11:45:36;102526.25;;;9.92;75.64
46942;BME280;32676;52.630;4.896;2023-12-20T11:48:03;102508.78;;;9.85;75.61
46942;BME280;32676;52.630;4.896;2023-12-20T11:50:30;102508.78;;;9.88;76.27
46942;BME280;32676;52.630;4.896;2023-12-20T11:52:56;102493.91;;;9.81;76.42
46942;BME280;32676;52.630;4.896;2023-12-20T11:55:22;102509.66;;;9.84;76.79
46942;BME280;32676;52.630;4.896;2023-12-20T11:57:49;102552.50;;;9.98;76.91
46942;BME280;32676;52.630;4.896;2023-12-20T12:00:18;102571.75;;;10.04;76.85
46942;BME280;32676;52.630;4.896;2023-12-20T12:02:55;102566.50;;;10.04;76.52
46942;BME280;32676;52.630;4.896;2023-12-20T12:05:22;102559.53;;;9.93;76.19
46942;BME280;32676;52.630;4.896;2023-12-20T12:07:48;102573.50;;;10.05;75.98
46942;BME280;32676;52.630;4.896;2023-12-20T12:10:15;102564.78;;;10.03;75.63
46942;BME280;32676;52.630;4.896;2023-12-20T12:12:41;102572.66;;;10.04;75.58
46942;BME280;32676;52.630;4.896;2023-12-20T12:15:08;102571.75;;;10.04;75.72
46942;BME280;32676;52.630;4.896;2023-12-20T12:17:36;102568.25;;;10.05;75.71
46942;BME280;32676;52.630;4.896;2023-12-20T12:20:04;102564.78;;;10.04;76.11
46942;BME280;32676;52.630;4.896;2023-12-20T12:22:31;102554.25;;;10.03;75.93
46942;BME280;32676;52.630;4.896;2023-12-20T12:24:59;102547.25;;;10.02;75.46
46942;BME280;32676;52.630;4.896;2023-12-20T12:27:27;102552.50;;;10.02;75.56
46942;BME280;32676;52.630;4.896;2023-12-20T12:30:00;102545.50;;;9.97;75.55
46942;BME280;32676;52.630;4.896;2023-12-20T12:32:28;102543.75;;;9.99;75.56
46942;BME280;32676;52.630;4.896;2023-12-20T12:34:55;102528.88;;;9.98;75.70
46942;BME280;32676;52.630;4.896;2023-12-20T12:37:22;102507.91;;;9.88;75.66
46942;BME280;32676;52.630;4.896;2023-12-20T12:39:50;102509.63;;;9.89;75.88
46942;BME280;32676;52.630;4.896;2023-12-20T12:42:16;102497.38;;;9.91;75.84
46942;BME280;32676;52.630;4.896;2023-12-20T12:44:42;102473.78;;;9.85;75.62
46942;BME280;32676;52.630;4.896;2023-12-20T12:47:09;102451.91;;;9.79;75.54
46942;BME280;32676;52.630;4.896;2023-12-20T12:49:35;102444.03;;;9.78;75.50
46942;BME280;32676;52.630;4.896;2023-12-20T12:52:04;102428.28;;;9.75;75.33
46942;BME280;32676;52.630;4.896;2023-12-20T12:54:29;102429.16;;;9.75;75.21
46942;BME280;32676;52.630;4.896;2023-12-20T12:56:56;102417.81;;;9.72;75.29
46942;BME280;32676;52.630;4.896;2023-12-20T12:59:23;102426.53;;;9.77;75.63